createdAt,value
2019-02-14T00:03:10.144Z,7.07
2019-02-14T00:08:13.972Z,6.96
2019-02-14T00:13:17.900Z,6.91
2019-02-14T00:18:21.805Z,6.86
2019-02-14T00:23:25.726Z,6.87
2019-02-14T00:28:29.916Z,6.86
2019-02-14T00:33:33.844Z,6.82
2019-02-14T00:38:38.004Z,6.78
2019-02-14T00:43:43.246Z,6.77
2019-02-14T00:48:47.205Z,6.76
2019-02-14T00:53:51.228Z,6.75
2019-02-14T00:58:55.224Z,6.75
2019-02-14T01:03:59.176Z,6.70
2019-02-14T01:09:03.219Z,6.64
2019-02-14T01:14:08.102Z,6.58
2019-02-14T01:19:12.005Z,6.57
2019-02-14T01:24:15.897Z,6.58
2019-02-14T01:29:19.966Z,6.55
2019-02-14T01:34:23.889Z,6.51
2019-02-14T01:39:27.818Z,6.51
2019-02-14T01:44:31.682Z,6.50
2019-02-14T01:49:36.279Z,6.43
2019-02-14T01:54:40.168Z,6.31
2019-02-14T01:59:44.146Z,6.32
2019-02-14T02:04:48.060Z,6.40
2019-02-14T02:09:51.976Z,6.29
2019-02-14T02:14:55.857Z,6.23
2019-02-14T02:19:59.773Z,6.32
2019-02-14T02:25:04.585Z,6.36
2019-02-14T02:30:10.735Z,6.36
2019-02-14T02:35:14.689Z,6.33
2019-02-14T02:40:18.682Z,6.33
2019-02-14T02:45:22.603Z,6.23
2019-02-14T02:50:26.636Z,6.23
2019-02-14T02:55:30.570Z,6.23
2019-02-14T03:00:34.472Z,6.23
2019-02-14T03:05:38.355Z,6.18
2019-02-14T03:10:42.313Z,6.14
2019-02-14T03:15:46.278Z,6.10
2019-02-14T03:20:50.248Z,5.99
2019-02-14T03:25:54.135Z,5.98
2019-02-14T03:30:57.972Z,5.98
2019-02-14T03:36:01.816Z,5.96
2019-02-14T03:41:05.779Z,5.93
2019-02-14T03:46:09.700Z,5.91
2019-02-14T03:51:13.692Z,5.89
2019-02-14T03:56:17.784Z,5.92
2019-02-14T04:01:21.778Z,5.90
2019-02-14T04:06:27.808Z,5.88
2019-02-14T04:11:31.815Z,5.88
2019-02-14T04:16:35.782Z,5.77
2019-02-14T04:21:39.594Z,5.73
2019-02-14T04:26:43.544Z,5.69
2019-02-14T04:31:47.436Z,5.70
2019-02-14T04:36:51.313Z,5.73
2019-02-14T04:41:55.282Z,5.71
2019-02-14T04:46:59.164Z,5.70
2019-02-14T04:52:03.063Z,5.62
2019-02-14T04:57:06.888Z,5.58
2019-02-14T05:02:10.716Z,5.57
2019-02-14T05:07:14.668Z,5.49
2019-02-14T05:12:18.581Z,5.48
2019-02-14T05:17:22.566Z,5.45
2019-02-14T05:22:26.449Z,5.42
2019-02-14T05:27:30.383Z,5.43
2019-02-14T05:32:34.246Z,5.42
2019-02-14T05:37:38.156Z,5.35
2019-02-14T05:42:41.963Z,5.32
2019-02-14T05:47:45.929Z,5.33
2019-02-14T05:52:49.949Z,5.30
2019-02-14T05:57:53.807Z,5.26
2019-02-14T06:02:57.801Z,5.19
2019-02-14T06:08:03.364Z,5.13
2019-02-14T06:13:07.342Z,5.07
2019-02-14T06:18:11.370Z,5.06
2019-02-14T06:23:15.307Z,5.02
2019-02-14T06:28:19.393Z,5.00
2019-02-14T06:33:23.352Z,5.00
2019-02-14T06:38:27.498Z,4.94
2019-02-14T06:43:31.850Z,4.91
2019-02-14T06:48:35.756Z,4.85
2019-02-14T06:53:39.768Z,4.82
2019-02-14T06:58:43.786Z,4.81
2019-02-14T07:03:47.793Z,4.81
2019-02-14T07:08:51.624Z,4.80
2019-02-14T07:13:55.575Z,4.82
2019-02-14T07:18:59.482Z,4.83
2019-02-14T07:24:03.444Z,4.84
2019-02-14T07:29:07.481Z,4.85
2019-02-14T07:34:11.418Z,4.85
2019-02-14T07:39:15.408Z,4.85
2019-02-14T07:44:19.571Z,4.87
2019-02-14T07:49:23.477Z,4.86
2019-02-14T07:54:27.564Z,5.02
2019-02-14T07:59:31.455Z,5.37
2019-02-14T08:04:35.449Z,5.84
2019-02-14T08:09:40.354Z,6.27
2019-02-14T08:14:44.392Z,6.64
2019-02-14T08:19:48.673Z,6.90
2019-02-14T08:24:52.582Z,6.91
2019-02-14T08:29:56.461Z,7.32
2019-02-14T08:35:00.536Z,7.69
2019-02-14T08:40:04.802Z,7.96
2019-02-14T08:45:09.781Z,8.13
2019-02-14T08:50:13.732Z,8.53
2019-02-14T08:55:17.820Z,8.85
2019-02-14T09:00:21.659Z,9.10
2019-02-14T09:05:25.644Z,9.48
2019-02-14T09:10:29.616Z,9.86
2019-02-14T09:15:33.460Z,9.95
2019-02-14T09:20:37.492Z,9.65
2019-02-14T09:25:42.227Z,10.15
2019-02-14T09:30:46.429Z,10.54
2019-02-14T09:35:50.382Z,10.81
2019-02-14T09:40:54.820Z,10.96
2019-02-14T09:45:59.010Z,10.74
2019-02-14T09:51:03.171Z,11.15
2019-02-14T09:56:07.786Z,10.83
2019-02-14T10:01:11.638Z,11.04
2019-02-14T10:06:15.656Z,11.30
2019-02-14T10:11:19.683Z,11.91
2019-02-14T10:16:23.614Z,12.29
2019-02-14T10:21:27.552Z,12.44
2019-02-14T10:26:31.760Z,12.72
2019-02-14T10:31:36.404Z,13.22
2019-02-14T10:36:40.424Z,13.19
2019-02-14T10:41:44.338Z,12.91
2019-02-14T10:46:48.362Z,13.13
2019-02-14T10:51:52.372Z,13.37
2019-02-14T10:56:56.296Z,13.00
2019-02-14T11:02:00.145Z,13.73
2019-02-14T11:07:04.154Z,13.95
2019-02-14T11:12:08.636Z,13.98
2019-02-14T11:17:13.261Z,14.31
2019-02-14T11:22:17.284Z,14.60
2019-02-14T11:27:21.172Z,15.01
2019-02-14T11:32:25.108Z,15.09
2019-02-14T11:37:29.169Z,14.91
2019-02-14T11:42:33.282Z,15.16
2019-02-14T11:47:37.090Z,15.17
2019-02-14T11:52:43.068Z,15.01
2019-02-14T11:57:47.052Z,15.31
2019-02-14T12:02:55.456Z,15.71
2019-02-14T12:07:56.776Z,16.17
2019-02-14T12:13:00.701Z,16.53
2019-02-14T12:18:04.816Z,16.76
2019-02-14T12:23:08.800Z,16.91
2019-02-14T12:28:12.734Z,16.93
2019-02-14T12:33:16.720Z,17.34
2019-02-14T12:38:20.744Z,17.51
2019-02-14T12:43:24.816Z,17.59
2019-02-14T12:48:28.920Z,17.47
2019-02-14T12:53:33.229Z,17.61
2019-02-14T12:58:37.210Z,17.83
2019-02-14T13:03:41.147Z,17.90
2019-02-14T13:08:45.085Z,17.84
2019-02-14T13:13:50.361Z,17.57
2019-02-14T13:18:54.638Z,17.87
2019-02-14T13:23:58.630Z,18.29
2019-02-14T13:29:02.538Z,18.70
2019-02-14T13:34:06.470Z,18.50
2019-02-14T13:39:10.694Z,18.56
2019-02-14T13:44:14.553Z,18.82
2019-02-14T13:49:18.781Z,19.00
2019-02-14T13:54:22.680Z,19.14
2019-02-14T13:59:26.588Z,19.34
2019-02-14T14:04:30.964Z,19.41
2019-02-14T14:09:38.711Z,19.45
2019-02-14T14:14:40.807Z,19.27
2019-02-14T14:19:44.729Z,19.37
2019-02-14T14:24:48.667Z,19.36
2019-02-14T14:29:53.006Z,19.47
2019-02-14T14:34:56.854Z,19.39
2019-02-14T14:40:00.963Z,19.31
2019-02-14T14:45:07.167Z,19.53
2019-02-14T14:50:11.171Z,19.60
2019-02-14T14:55:15.119Z,19.53
2019-02-14T15:00:19.284Z,19.42
2019-02-14T15:05:23.489Z,19.48
2019-02-14T15:10:27.486Z,19.43
2019-02-14T15:15:31.539Z,19.20
2019-02-14T15:20:35.525Z,18.82
2019-02-14T15:25:39.476Z,18.93
2019-02-14T15:30:43.588Z,18.83
2019-02-14T15:35:47.516Z,18.96
2019-02-14T15:40:51.387Z,19.15
2019-02-14T15:45:55.412Z,18.92
2019-02-14T15:50:59.555Z,18.46
2019-02-14T15:56:05.432Z,18.18
2019-02-14T16:01:09.197Z,18.14
2019-02-14T16:06:13.807Z,18.15
2019-02-14T16:11:19.620Z,18.21
2019-02-14T16:16:24.188Z,18.16
2019-02-14T16:21:29.526Z,17.99
2019-02-14T16:26:35.301Z,17.96
2019-02-14T16:31:39.627Z,17.99
2019-02-14T16:36:43.621Z,18.09
2019-02-14T16:41:47.628Z,18.07
2019-02-14T16:46:51.577Z,18.06
2019-02-14T16:51:55.501Z,18.04
2019-02-14T16:56:59.629Z,17.95
2019-02-14T17:02:03.547Z,17.86
2019-02-14T17:07:07.833Z,17.74
2019-02-14T17:12:11.731Z,17.59
2019-02-14T17:17:15.637Z,17.40
2019-02-14T17:22:20.915Z,17.19
2019-02-14T17:27:25.162Z,17.00
2019-02-14T17:32:32.083Z,17.04
2019-02-14T17:37:36.027Z,17.01
2019-02-14T17:42:40.080Z,16.71
2019-02-14T17:47:44.448Z,16.70
2019-02-14T17:52:48.501Z,16.63
2019-02-14T17:57:53.838Z,16.57
2019-02-14T18:02:59.043Z,16.46
2019-02-14T18:08:03.009Z,16.36
2019-02-14T18:13:07.105Z,16.27
2019-02-14T18:18:11.278Z,16.18
2019-02-14T18:23:15.195Z,16.07
2019-02-14T18:28:19.639Z,15.94
2019-02-14T18:33:23.752Z,15.81
2019-02-14T18:38:27.764Z,15.64
2019-02-14T18:43:31.620Z,15.48
2019-02-14T18:48:35.724Z,15.35
2019-02-14T18:53:39.748Z,15.24
2019-02-14T18:58:43.760Z,15.14
2019-02-14T19:03:47.619Z,15.06
2019-02-14T19:08:51.949Z,14.99
2019-02-14T19:13:55.930Z,14.85
2019-02-14T19:18:59.943Z,14.65
2019-02-14T19:24:03.967Z,14.57
2019-02-14T19:29:08.278Z,14.48
2019-02-14T19:34:12.454Z,14.37
2019-02-14T19:39:16.351Z,14.21
2019-02-14T19:44:20.204Z,14.02
2019-02-14T19:49:24.200Z,13.83
2019-02-14T19:54:28.221Z,13.71
2019-02-14T19:59:32.096Z,13.58
2019-02-14T20:04:36.124Z,13.47
2019-02-14T20:09:41.633Z,13.30
2019-02-14T20:14:45.729Z,13.08
2019-02-14T20:19:49.793Z,12.96
2019-02-14T20:24:57.252Z,12.79
2019-02-14T20:58:47.822Z,12.16
2019-02-14T21:04:03.143Z,12.00
2019-02-14T21:16:02.924Z,11.78
2019-02-14T21:21:07.440Z,11.54
2019-02-14T21:26:11.584Z,11.38
2019-02-14T21:31:15.841Z,11.26
2019-02-14T21:36:19.665Z,11.21
2019-02-14T21:41:23.668Z,11.16
2019-02-14T21:46:27.521Z,11.06
2019-02-14T21:51:31.423Z,10.97
2019-02-14T21:56:35.416Z,10.78
2019-02-14T22:01:39.453Z,10.63
2019-02-14T22:06:43.487Z,10.56
2019-02-14T22:11:47.502Z,10.53
2019-02-14T22:16:51.319Z,10.41
2019-02-14T22:21:55.426Z,10.31
2019-02-14T22:26:59.443Z,10.21
2019-02-14T22:32:03.407Z,10.12
2019-02-14T22:37:07.270Z,10.08
2019-02-14T22:42:11.380Z,10.04
2019-02-14T22:47:15.529Z,9.97
2019-02-14T22:52:20.062Z,9.89
2019-02-14T22:57:24.052Z,9.81
2019-02-14T23:02:28.051Z,9.69
2019-02-14T23:07:32.164Z,9.49
2019-02-14T23:12:36.006Z,9.42
2019-02-14T23:17:39.978Z,9.33
2019-02-14T23:22:43.868Z,9.09
2019-02-14T23:27:47.782Z,9.17
2019-02-14T23:32:51.770Z,9.08
2019-02-14T23:37:55.760Z,9.03
2019-02-14T23:43:04.847Z,9.04
2019-02-14T23:48:05.325Z,9.09
2019-02-14T23:53:09.268Z,9.05
2019-02-14T23:58:14.721Z,8.99
